sensor_id;sensor_type;location;lat;lon;timestamp;P1;durP1;ratioP1;P2;durP2;ratioP2
19593;SDS011;9944;48.240;16.478;2024-01-16T00:02:23;3.38;;;1.90;;
19593;SDS011;9944;48.240;16.478;2024-01-16T00:06:48;2.20;;;1.63;;
19593;SDS011;9944;48.240;16.478;2024-01-16T00:11:12;2.83;;;2.03;;
19593;SDS011;9944;48.240;16.478;2024-01-16T00:15:35;2.92;;;2.20;;
19593;SDS011;9944;48.240;16.478;2024-01-16T00:19:59;2.00;;;1.70;;
19593;SDS011;9944;48.240;16.478;2024-01-16T00:24:24;3.07;;;2.00;;
19593;SDS011;9944;48.240;16.478;2024-01-16T00:28:48;3.00;;;1.90;;
19593;SDS011;9944;48.240;16.478;2024-01-16T00:33:11;2.80;;;1.90;;
19593;SDS011;9944;48.240;16.478;2024-01-16T00:37:35;2.93;;;2.00;;
19593;SDS011;9944;48.240;16.478;2024-01-16T00:42:00;2.40;;;1.80;;
19593;SDS011;9944;48.240;16.478;2024-01-16T00:46:24;4.80;;;2.13;;
19593;SDS011;9944;48.240;16.478;2024-01-16T00:50:48;2.60;;;1.70;;
19593;SDS011;9944;48.240;16.478;2024-01-16T00:55:11;2.53;;;1.83;;
19593;SDS011;9944;48.240;16.478;2024-01-16T00:59:36;2.97;;;2.22;;
19593;SDS011;9944;48.240;16.478;2024-01-16T01:04:00;5.13;;;2.40;;
19593;SDS011;9944;48.240;16.478;2024-01-16T01:08:23;2.20;;;1.67;;
19593;SDS011;9944;48.240;16.478;2024-01-16T01:12:47;2.20;;;1.90;;
19593;SDS011;9944;48.240;16.478;2024-01-16T01:17:11;2.70;;;2.00;;
19593;SDS011;9944;48.240;16.478;2024-01-16T01:21:35;2.83;;;1.90;;
19593;SDS011;9944;48.240;16.478;2024-01-16T01:25:59;4.22;;;2.20;;
19593;SDS011;9944;48.240;16.478;2024-01-16T01:30:23;3.50;;;2.30;;
19593;SDS011;9944;48.240;16.478;2024-01-16T01:34:48;2.93;;;2.10;;
19593;SDS011;9944;48.240;16.478;2024-01-16T01:39:12;4.73;;;2.20;;
19593;SDS011;9944;48.240;16.478;2024-01-16T01:43:35;3.83;;;2.17;;
19593;SDS011;9944;48.240;16.478;2024-01-16T01:47:58;3.23;;;2.57;;
19593;SDS011;9944;48.240;16.478;2024-01-16T01:52:24;3.60;;;2.30;;
19593;SDS011;9944;48.240;16.478;2024-01-16T01:56:48;2.87;;;2.20;;
19593;SDS011;9944;48.240;16.478;2024-01-16T02:01:12;3.97;;;2.10;;
19593;SDS011;9944;48.240;16.478;2024-01-16T02:05:38;3.83;;;2.20;;
19593;SDS011;9944;48.240;16.478;2024-01-16T02:10:04;3.03;;;2.10;;
19593;SDS011;9944;48.240;16.478;2024-01-16T02:14:28;3.50;;;2.40;;
19593;SDS011;9944;48.240;16.478;2024-01-16T02:18:52;3.23;;;1.90;;
19593;SDS011;9944;48.240;16.478;2024-01-16T02:27:48;3.97;;;2.40;;
19593;SDS011;9944;48.240;16.478;2024-01-16T02:32:12;3.73;;;2.60;;
19593;SDS011;9944;48.240;16.478;2024-01-16T02:36:36;4.55;;;2.25;;
19593;SDS011;9944;48.240;16.478;2024-01-16T02:41:01;4.03;;;2.20;;
19593;SDS011;9944;48.240;16.478;2024-01-16T02:45:24;3.50;;;2.00;;
19593;SDS011;9944;48.240;16.478;2024-01-16T02:49:48;3.07;;;2.00;;
19593;SDS011;9944;48.240;16.478;2024-01-16T02:54:12;3.27;;;2.33;;
19593;SDS011;9944;48.240;16.478;2024-01-16T02:58:37;3.47;;;2.20;;
19593;SDS011;9944;48.240;16.478;2024-01-16T03:03:00;2.60;;;1.95;;
19593;SDS011;9944;48.240;16.478;2024-01-16T03:07:24;2.30;;;1.90;;
19593;SDS011;9944;48.240;16.478;2024-01-16T03:11:48;2.87;;;2.07;;
19593;SDS011;9944;48.240;16.478;2024-01-16T03:16:13;4.03;;;2.30;;
19593;SDS011;9944;48.240;16.478;2024-01-16T03:20:37;3.30;;;2.30;;
19593;SDS011;9944;48.240;16.478;2024-01-16T03:25:01;4.00;;;2.30;;
19593;SDS011;9944;48.240;16.478;2024-01-16T03:29:25;2.90;;;2.00;;
19593;SDS011;9944;48.240;16.478;2024-01-16T03:33:50;3.03;;;2.30;;
19593;SDS011;9944;48.240;16.478;2024-01-16T03:38:14;4.27;;;2.27;;
19593;SDS011;9944;48.240;16.478;2024-01-16T03:42:37;2.47;;;1.93;;
19593;SDS011;9944;48.240;16.478;2024-01-16T03:47:01;4.27;;;2.37;;
19593;SDS011;9944;48.240;16.478;2024-01-16T03:51:27;3.97;;;2.33;;
19593;SDS011;9944;48.240;16.478;2024-01-16T03:55:51;3.47;;;2.40;;
19593;SDS011;9944;48.240;16.478;2024-01-16T04:00:15;3.50;;;2.73;;
19593;SDS011;9944;48.240;16.478;2024-01-16T04:04:38;3.57;;;2.40;;
19593;SDS011;9944;48.240;16.478;2024-01-16T04:09:05;3.70;;;2.20;;
19593;SDS011;9944;48.240;16.478;2024-01-16T04:13:28;3.63;;;2.47;;
19593;SDS011;9944;48.240;16.478;2024-01-16T04:17:52;2.57;;;2.10;;
19593;SDS011;9944;48.240;16.478;2024-01-16T04:22:16;2.30;;;1.80;;
19593;SDS011;9944;48.240;16.478;2024-01-16T04:26:41;4.63;;;2.20;;
19593;SDS011;9944;48.240;16.478;2024-01-16T04:31:04;3.93;;;1.90;;
19593;SDS011;9944;48.240;16.478;2024-01-16T04:35:29;3.53;;;2.10;;
19593;SDS011;9944;48.240;16.478;2024-01-16T04:39:52;2.83;;;1.90;;
19593;SDS011;9944;48.240;16.478;2024-01-16T04:44:17;3.47;;;2.17;;
19593;SDS011;9944;48.240;16.478;2024-01-16T04:48:41;3.23;;;2.10;;
19593;SDS011;9944;48.240;16.478;2024-01-16T04:53:07;2.43;;;1.70;;
19593;SDS011;9944;48.240;16.478;2024-01-16T04:57:31;3.07;;;1.83;;
19593;SDS011;9944;48.240;16.478;2024-01-16T05:01:56;2.27;;;1.83;;
19593;SDS011;9944;48.240;16.478;2024-01-16T05:06:19;3.27;;;2.00;;
19593;SDS011;9944;48.240;16.478;2024-01-16T05:10:43;3.07;;;1.70;;
19593;SDS011;9944;48.240;16.478;2024-01-16T05:15:07;2.53;;;1.83;;
19593;SDS011;9944;48.240;16.478;2024-01-16T05:19:34;2.50;;;1.93;;
19593;SDS011;9944;48.240;16.478;2024-01-16T05:23:58;3.17;;;1.60;;
19593;SDS011;9944;48.240;16.478;2024-01-16T05:28:22;4.53;;;1.70;;
19593;SDS011;9944;48.240;16.478;2024-01-16T05:32:45;2.80;;;1.60;;
19593;SDS011;9944;48.240;16.478;2024-01-16T05:37:11;2.30;;;1.73;;
19593;SDS011;9944;48.240;16.478;2024-01-16T05:41:34;3.20;;;1.80;;
19593;SDS011;9944;48.240;16.478;2024-01-16T05:45:59;2.27;;;1.60;;
19593;SDS011;9944;48.240;16.478;2024-01-16T05:50:23;2.53;;;1.60;;
19593;SDS011;9944;48.240;16.478;2024-01-16T05:54:48;1.93;;;1.40;;
19593;SDS011;9944;48.240;16.478;2024-01-16T05:59:12;1.87;;;1.27;;
19593;SDS011;9944;48.240;16.478;2024-01-16T06:03:36;2.63;;;1.57;;
19593;SDS011;9944;48.240;16.478;2024-01-16T06:07:59;2.07;;;1.30;;
19593;SDS011;9944;48.240;16.478;2024-01-16T06:12:26;1.60;;;1.40;;
19593;SDS011;9944;48.240;16.478;2024-01-16T06:16:49;1.37;;;1.13;;
19593;SDS011;9944;48.240;16.478;2024-01-16T06:21:14;2.23;;;1.43;;
19593;SDS011;9944;48.240;16.478;2024-01-16T06:25:38;1.97;;;1.20;;
19593;SDS011;9944;48.240;16.478;2024-01-16T06:30:04;2.47;;;1.30;;
19593;SDS011;9944;48.240;16.478;2024-01-16T06:34:30;1.57;;;1.13;;
19593;SDS011;9944;48.240;16.478;2024-01-16T06:38:54;2.37;;;1.50;;
19593;SDS011;9944;48.240;16.478;2024-01-16T06:43:17;1.83;;;1.20;;
19593;SDS011;9944;48.240;16.478;2024-01-16T06:47:42;1.10;;;1.00;;
19593;SDS011;9944;48.240;16.478;2024-01-16T06:52:08;1.13;;;1.03;;
19593;SDS011;9944;48.240;16.478;2024-01-16T06:56:32;1.67;;;1.23;;
19593;SDS011;9944;48.240;16.478;2024-01-16T07:00:56;3.07;;;1.50;;
19593;SDS011;9944;48.240;16.478;2024-01-16T07:05:22;2.33;;;1.50;;
19593;SDS011;9944;48.240;16.478;2024-01-16T07:09:46;2.23;;;1.10;;
19593;SDS011;9944;48.240;16.478;2024-01-16T07:14:09;2.27;;;1.00;;
19593;SDS011;9944;48.240;16.478;2024-01-16T07:18:33;1.70;;;1.40;;
19593;SDS011;9944;48.240;16.478;2024-01-16T07:22:59;1.53;;;1.10;;
19593;SDS011;9944;48.240;16.478;2024-01-16T07:27:22;2.27;;;1.37;;
19593;SDS011;9944;48.240;16.478;2024-01-16T07:31:46;1.93;;;1.10;;
19593;SDS011;9944;48.240;16.478;2024-01-16T07:36:10;1.53;;;1.20;;
19593;SDS011;9944;48.240;16.478;2024-01-16T07:40:36;1.80;;;1.10;;
19593;SDS011;9944;48.240;16.478;2024-01-16T07:44:59;1.57;;;1.10;;
19593;SDS011;9944;48.240;16.478;2024-01-16T07:49:23;1.40;;;1.07;;
19593;SDS011;9944;48.240;16.478;2024-01-16T07:53:46;1.53;;;1.10;;
19593;SDS011;9944;48.240;16.478;2024-01-16T07:58:12;2.63;;;1.50;;
19593;SDS011;9944;48.240;16.478;2024-01-16T08:02:36;2.00;;;1.10;;
19593;SDS011;9944;48.240;16.478;2024-01-16T08:06:59;1.83;;;1.23;;
19593;SDS011;9944;48.240;16.478;2024-01-16T08:11:23;1.23;;;1.03;;
19593;SDS011;9944;48.240;16.478;2024-01-16T08:15:49;1.40;;;1.10;;
19593;SDS011;9944;48.240;16.478;2024-01-16T08:20:12;2.40;;;1.10;;
19593;SDS011;9944;48.240;16.478;2024-01-16T08:24:37;2.60;;;1.30;;
19593;SDS011;9944;48.240;16.478;2024-01-16T08:29:00;1.53;;;1.10;;
19593;SDS011;9944;48.240;16.478;2024-01-16T08:33:25;2.10;;;1.30;;
19593;SDS011;9944;48.240;16.478;2024-01-16T08:38:00;1.70;;;1.00;;
19593;SDS011;9944;48.240;16.478;2024-01-16T08:42:24;0.80;;;0.75;;
19593;SDS011;9944;48.240;16.478;2024-01-16T08:46:48;1.57;;;0.87;;
19593;SDS011;9944;48.240;16.478;2024-01-16T08:51:14;1.03;;;0.90;;
19593;SDS011;9944;48.240;16.478;2024-01-16T08:55:37;2.15;;;1.00;;
19593;SDS011;9944;48.240;16.478;2024-01-16T09:00:01;1.95;;;0.63;;
19593;SDS011;9944;48.240;16.478;2024-01-16T09:04:25;0.95;;;0.90;;
19593;SDS011;9944;48.240;16.478;2024-01-16T09:08:50;1.50;;;0.95;;
19593;SDS011;9944;48.240;16.478;2024-01-16T09:13:14;1.58;;;0.90;;
19593;SDS011;9944;48.240;16.478;2024-01-16T09:17:37;1.47;;;0.93;;
19593;SDS011;9944;48.240;16.478;2024-01-16T09:22:01;4.25;;;1.10;;
19593;SDS011;9944;48.240;16.478;2024-01-16T09:26:27;1.23;;;0.82;;
19593;SDS011;9944;48.240;16.478;2024-01-16T09:30:50;1.10;;;0.80;;
19593;SDS011;9944;48.240;16.478;2024-01-16T09:35:14;1.85;;;1.00;;
19593;SDS011;9944;48.240;16.478;2024-01-16T09:39:38;2.50;;;0.95;;
19593;SDS011;9944;48.240;16.478;2024-01-16T09:44:03;2.35;;;0.90;;
19593;SDS011;9944;48.240;16.478;2024-01-16T09:48:27;0.80;;;0.68;;
19593;SDS011;9944;48.240;16.478;2024-01-16T09:52:52;3.22;;;1.48;;
19593;SDS011;9944;48.240;16.478;2024-01-16T09:57:19;0.80;;;0.80;;
19593;SDS011;9944;48.240;16.478;2024-01-16T10:01:49;1.55;;;0.90;;
19593;SDS011;9944;48.240;16.478;2024-01-16T10:06:17;1.73;;;1.00;;
19593;SDS011;9944;48.240;16.478;2024-01-16T10:10:45;2.92;;;0.85;;
19593;SDS011;9944;48.240;16.478;2024-01-16T10:15:11;2.38;;;0.93;;
19593;SDS011;9944;48.240;16.478;2024-01-16T10:19:46;1.50;;;0.90;;
19593;SDS011;9944;48.240;16.478;2024-01-16T10:24:11;1.73;;;1.20;;
19593;SDS011;9944;48.240;16.478;2024-01-16T10:28:36;5.55;;;0.90;;
19593;SDS011;9944;48.240;16.478;2024-01-16T10:33:12;1.05;;;0.70;;
19593;SDS011;9944;48.240;16.478;2024-01-16T10:37:45;0.95;;;0.85;;
19593;SDS011;9944;48.240;16.478;2024-01-16T10:42:10;1.58;;;1.08;;
19593;SDS011;9944;48.240;16.478;2024-01-16T10:46:34;1.98;;;1.10;;
19593;SDS011;9944;48.240;16.478;2024-01-16T10:50:58;1.40;;;0.90;;
19593;SDS011;9944;48.240;16.478;2024-01-16T10:55:24;1.58;;;1.02;;
19593;SDS011;9944;48.240;16.478;2024-01-16T10:59:48;1.83;;;1.27;;
19593;SDS011;9944;48.240;16.478;2024-01-16T11:04:16;2.33;;;0.80;;
19593;SDS011;9944;48.240;16.478;2024-01-16T11:08:41;1.10;;;0.82;;
19593;SDS011;9944;48.240;16.478;2024-01-16T11:13:06;1.30;;;0.80;;
19593;SDS011;9944;48.240;16.478;2024-01-16T11:17:31;1.05;;;0.93;;
19593;SDS011;9944;48.240;16.478;2024-01-16T11:21:55;1.02;;;0.80;;
19593;SDS011;9944;48.240;16.478;2024-01-16T11:26:26;1.38;;;1.02;;
19593;SDS011;9944;48.240;16.478;2024-01-16T11:30:52;2.90;;;1.08;;
19593;SDS011;9944;48.240;16.478;2024-01-16T11:35:16;1.58;;;0.80;;
19593;SDS011;9944;48.240;16.478;2024-01-16T11:44:45;0.70;;;0.70;;
19593;SDS011;9944;48.240;16.478;2024-01-16T11:49:14;1.55;;;0.90;;
19593;SDS011;9944;48.240;16.478;2024-01-16T11:53:41;2.05;;;1.25;;
19593;SDS011;9944;48.240;16.478;2024-01-16T11:58:19;2.35;;;0.85;;
19593;SDS011;9944;48.240;16.478;2024-01-16T12:02:53;0.77;;;0.77;;
19593;SDS011;9944;48.240;16.478;2024-01-16T12:07:20;0.73;;;0.73;;
19593;SDS011;9944;48.240;16.478;2024-01-16T12:11:44;1.08;;;0.70;;
19593;SDS011;9944;48.240;16.478;2024-01-16T12:16:20;3.15;;;0.95;;
19593;SDS011;9944;48.240;16.478;2024-01-16T12:20:43;0.60;;;0.60;;
19593;SDS011;9944;48.240;16.478;2024-01-16T12:25:09;1.02;;;0.75;;
19593;SDS011;9944;48.240;16.478;2024-01-16T12:29:32;2.42;;;0.70;;
19593;SDS011;9944;48.240;16.478;2024-01-16T12:34:04;2.03;;;0.80;;
19593;SDS011;9944;48.240;16.478;2024-01-16T12:38:30;1.67;;;0.80;;
19593;SDS011;9944;48.240;16.478;2024-01-16T12:42:55;1.00;;;0.80;;
19593;SDS011;9944;48.240;16.478;2024-01-16T12:47:18;1.67;;;0.88;;
19593;SDS011;9944;48.240;16.478;2024-01-16T12:51:43;1.10;;;0.80;;
19593;SDS011;9944;48.240;16.478;2024-01-16T12:56:07;2.00;;;1.05;;
19593;SDS011;9944;48.240;16.478;2024-01-16T13:00:34;2.85;;;0.85;;
19593;SDS011;9944;48.240;16.478;2024-01-16T13:04:58;1.55;;;0.70;;
19593;SDS011;9944;48.240;16.478;2024-01-16T13:09:25;0.85;;;0.52;;
19593;SDS011;9944;48.240;16.478;2024-01-16T13:13:49;0.40;;;0.40;;
19593;SDS011;9944;48.240;16.478;2024-01-16T13:18:27;1.58;;;0.60;;
19593;SDS011;9944;48.240;16.478;2024-01-16T13:22:52;0.90;;;0.60;;
19593;SDS011;9944;48.240;16.478;2024-01-16T13:27:15;0.75;;;0.50;;
19593;SDS011;9944;48.240;16.478;2024-01-16T13:31:39;1.42;;;0.60;;
19593;SDS011;9944;48.240;16.478;2024-01-16T13:36:04;1.98;;;0.65;;
19593;SDS011;9944;48.240;16.478;2024-01-16T13:40:28;1.05;;;0.70;;
19593;SDS011;9944;48.240;16.478;2024-01-16T13:44:51;1.52;;;0.70;;
19593;SDS011;9944;48.240;16.478;2024-01-16T13:49:15;0.50;;;0.50;;
19593;SDS011;9944;48.240;16.478;2024-01-16T13:53:40;1.40;;;0.57;;
19593;SDS011;9944;48.240;16.478;2024-01-16T13:58:04;0.50;;;0.40;;
19593;SDS011;9944;48.240;16.478;2024-01-16T14:02:28;4.15;;;0.68;;
19593;SDS011;9944;48.240;16.478;2024-01-16T14:06:51;2.63;;;0.50;;
19593;SDS011;9944;48.240;16.478;2024-01-16T14:11:35;2.72;;;0.55;;
19593;SDS011;9944;48.240;16.478;2024-01-16T14:16:00;0.82;;;0.68;;
19593;SDS011;9944;48.240;16.478;2024-01-16T14:20:25;0.88;;;0.50;;
19593;SDS011;9944;48.240;16.478;2024-01-16T14:24:49;0.50;;;0.50;;
19593;SDS011;9944;48.240;16.478;2024-01-16T14:29:15;2.05;;;0.70;;
19593;SDS011;9944;48.240;16.478;2024-01-16T14:33:39;3.08;;;1.80;;
19593;SDS011;9944;48.240;16.478;2024-01-16T14:38:03;1.98;;;0.80;;
19593;SDS011;9944;48.240;16.478;2024-01-16T14:42:27;0.98;;;0.75;;
19593;SDS011;9944;48.240;16.478;2024-01-16T14:46:53;0.70;;;0.60;;
19593;SDS011;9944;48.240;16.478;2024-01-16T14:51:16;1.17;;;0.77;;
19593;SDS011;9944;48.240;16.478;2024-01-16T14:55:40;0.63;;;0.60;;
19593;SDS011;9944;48.240;16.478;2024-01-16T15:00:05;1.33;;;0.82;;
19593;SDS011;9944;48.240;16.478;2024-01-16T15:04:37;0.80;;;0.70;;
19593;SDS011;9944;48.240;16.478;2024-01-16T15:09:03;1.17;;;0.73;;
19593;SDS011;9944;48.240;16.478;2024-01-16T15:13:27;2.88;;;0.90;;
19593;SDS011;9944;48.240;16.478;2024-01-16T15:17:51;0.77;;;0.70;;
19593;SDS011;9944;48.240;16.478;2024-01-16T15:22:16;2.63;;;0.73;;
19593;SDS011;9944;48.240;16.478;2024-01-16T15:26:40;1.23;;;0.90;;
19593;SDS011;9944;48.240;16.478;2024-01-16T15:31:04;1.85;;;0.90;;
19593;SDS011;9944;48.240;16.478;2024-01-16T15:35:29;2.72;;;1.65;;
19593;SDS011;9944;48.240;16.478;2024-01-16T15:39:55;1.25;;;0.70;;
19593;SDS011;9944;48.240;16.478;2024-01-16T15:44:19;2.13;;;0.90;;
19593;SDS011;9944;48.240;16.478;2024-01-16T15:48:43;2.72;;;0.93;;
19593;SDS011;9944;48.240;16.478;2024-01-16T15:53:06;1.75;;;0.90;;
19593;SDS011;9944;48.240;16.478;2024-01-16T15:57:32;1.40;;;0.90;;
19593;SDS011;9944;48.240;16.478;2024-01-16T16:01:57;2.47;;;1.00;;
19593;SDS011;9944;48.240;16.478;2024-01-16T16:06:25;2.35;;;1.23;;
19593;SDS011;9944;48.240;16.478;2024-01-16T16:10:49;3.13;;;1.30;;
19593;SDS011;9944;48.240;16.478;2024-01-16T16:15:15;3.05;;;1.48;;
19593;SDS011;9944;48.240;16.478;2024-01-16T16:19:38;4.93;;;1.30;;
19593;SDS011;9944;48.240;16.478;2024-01-16T16:29:34;4.28;;;1.40;;
19593;SDS011;9944;48.240;16.478;2024-01-16T16:35:17;2.13;;;1.60;;
19593;SDS011;9944;48.240;16.478;2024-01-16T16:39:44;5.38;;;1.98;;
19593;SDS011;9944;48.240;16.478;2024-01-16T16:48:24;2.50;;;1.90;;
19593;SDS011;9944;48.240;16.478;2024-01-16T16:52:49;3.50;;;2.03;;
19593;SDS011;9944;48.240;16.478;2024-01-16T16:57:13;4.70;;;2.00;;
19593;SDS011;9944;48.240;16.478;2024-01-16T17:01:36;5.55;;;3.58;;
19593;SDS011;9944;48.240;16.478;2024-01-16T17:06:01;8.20;;;3.33;;
19593;SDS011;9944;48.240;16.478;2024-01-16T17:10:27;6.20;;;3.17;;
19593;SDS011;9944;48.240;16.478;2024-01-16T17:14:50;3.80;;;1.83;;
19593;SDS011;9944;48.240;16.478;2024-01-16T17:19:16;3.03;;;1.70;;
19593;SDS011;9944;48.240;16.478;2024-01-16T17:23:41;5.18;;;2.25;;
19593;SDS011;9944;48.240;16.478;2024-01-16T17:33:35;5.45;;;2.83;;
19593;SDS011;9944;48.240;16.478;2024-01-16T17:37:59;4.90;;;2.20;;
19593;SDS011;9944;48.240;16.478;2024-01-16T17:42:24;6.00;;;2.42;;
19593;SDS011;9944;48.240;16.478;2024-01-16T17:46:51;3.70;;;2.38;;
19593;SDS011;9944;48.240;16.478;2024-01-16T17:51:14;4.95;;;2.15;;
19593;SDS011;9944;48.240;16.478;2024-01-16T17:55:18;3.28;;;1.95;;
19593;SDS011;9944;48.240;16.478;2024-01-16T17:59:51;5.60;;;1.90;;
19593;SDS011;9944;48.240;16.478;2024-01-16T18:08:27;5.25;;;2.55;;
19593;SDS011;9944;48.240;16.478;2024-01-16T18:12:31;5.07;;;3.00;;
19593;SDS011;9944;48.240;16.478;2024-01-16T18:16:34;5.00;;;2.65;;
19593;SDS011;9944;48.240;16.478;2024-01-16T18:20:38;5.82;;;2.70;;
19593;SDS011;9944;48.240;16.478;2024-01-16T18:24:45;4.22;;;2.40;;
19593;SDS011;9944;48.240;16.478;2024-01-16T18:28:48;4.47;;;2.25;;
19593;SDS011;9944;48.240;16.478;2024-01-16T18:32:52;4.28;;;1.92;;
19593;SDS011;9944;48.240;16.478;2024-01-16T18:36:56;5.68;;;2.60;;
19593;SDS011;9944;48.240;16.478;2024-01-16T18:41:01;4.80;;;2.60;;
19593;SDS011;9944;48.240;16.478;2024-01-16T18:45:06;4.55;;;2.60;;
19593;SDS011;9944;48.240;16.478;2024-01-16T18:49:10;6.72;;;2.47;;
19593;SDS011;9944;48.240;16.478;2024-01-16T18:53:15;3.50;;;2.58;;
19593;SDS011;9944;48.240;16.478;2024-01-16T18:57:20;5.50;;;3.33;;
19593;SDS011;9944;48.240;16.478;2024-01-16T19:01:23;7.35;;;3.13;;
19593;SDS011;9944;48.240;16.478;2024-01-16T19:05:30;6.20;;;3.08;;
19593;SDS011;9944;48.240;16.478;2024-01-16T19:09:36;5.13;;;2.88;;
19593;SDS011;9944;48.240;16.478;2024-01-16T19:13:41;6.03;;;3.22;;
19593;SDS011;9944;48.240;16.478;2024-01-16T19:17:46;4.80;;;3.00;;
19593;SDS011;9944;48.240;16.478;2024-01-16T19:21:50;6.78;;;3.58;;
19593;SDS011;9944;48.240;16.478;2024-01-16T19:25:54;4.82;;;2.97;;
19593;SDS011;9944;48.240;16.478;2024-01-16T19:29:58;6.93;;;2.85;;
19593;SDS011;9944;48.240;16.478;2024-01-16T19:34:06;5.88;;;2.90;;
19593;SDS011;9944;48.240;16.478;2024-01-16T19:38:11;6.05;;;2.97;;
19593;SDS011;9944;48.240;16.478;2024-01-16T19:42:15;5.07;;;3.20;;
19593;SDS011;9944;48.240;16.478;2024-01-16T19:46:20;9.68;;;5.07;;
19593;SDS011;9944;48.240;16.478;2024-01-16T19:50:23;6.55;;;3.75;;
19593;SDS011;9944;48.240;16.478;2024-01-16T19:54:27;5.13;;;3.63;;
19593;SDS011;9944;48.240;16.478;2024-01-16T19:58:30;7.07;;;3.70;;
19593;SDS011;9944;48.240;16.478;2024-01-16T20:02:35;8.13;;;4.30;;
19593;SDS011;9944;48.240;16.478;2024-01-16T20:06:39;8.07;;;4.72;;
19593;SDS011;9944;48.240;16.478;2024-01-16T20:10:43;12.75;;;6.13;;
19593;SDS011;9944;48.240;16.478;2024-01-16T20:14:47;15.65;;;7.97;;
19593;SDS011;9944;48.240;16.478;2024-01-16T20:18:51;15.27;;;7.88;;
19593;SDS011;9944;48.240;16.478;2024-01-16T20:22:57;14.33;;;6.07;;
19593;SDS011;9944;48.240;16.478;2024-01-16T20:27:01;11.32;;;5.65;;
19593;SDS011;9944;48.240;16.478;2024-01-16T20:31:05;10.07;;;4.87;;
19593;SDS011;9944;48.240;16.478;2024-01-16T20:35:11;8.98;;;4.53;;
19593;SDS011;9944;48.240;16.478;2024-01-16T20:39:15;11.70;;;5.80;;
19593;SDS011;9944;48.240;16.478;2024-01-16T20:43:18;13.43;;;6.30;;
19593;SDS011;9944;48.240;16.478;2024-01-16T20:47:22;13.50;;;6.00;;
19593;SDS011;9944;48.240;16.478;2024-01-16T20:51:27;11.18;;;6.07;;
19593;SDS011;9944;48.240;16.478;2024-01-16T20:55:32;11.13;;;6.10;;
19593;SDS011;9944;48.240;16.478;2024-01-16T20:59:39;11.00;;;5.50;;
19593;SDS011;9944;48.240;16.478;2024-01-16T21:03:42;10.20;;;5.40;;
19593;SDS011;9944;48.240;16.478;2024-01-16T21:07:49;9.23;;;5.00;;
19593;SDS011;9944;48.240;16.478;2024-01-16T21:11:53;8.93;;;4.93;;
19593;SDS011;9944;48.240;16.478;2024-01-16T21:15:57;12.57;;;6.00;;
19593;SDS011;9944;48.240;16.478;2024-01-16T21:20:04;10.57;;;5.97;;
19593;SDS011;9944;48.240;16.478;2024-01-16T21:24:11;11.40;;;6.07;;
19593;SDS011;9944;48.240;16.478;2024-01-16T21:28:16;10.27;;;5.87;;
19593;SDS011;9944;48.240;16.478;2024-01-16T21:32:20;9.00;;;4.73;;
19593;SDS011;9944;48.240;16.478;2024-01-16T21:36:24;9.03;;;5.17;;
19593;SDS011;9944;48.240;16.478;2024-01-16T21:40:29;11.03;;;4.63;;
19593;SDS011;9944;48.240;16.478;2024-01-16T21:44:34;8.10;;;5.13;;
19593;SDS011;9944;48.240;16.478;2024-01-16T21:48:37;8.87;;;4.80;;
19593;SDS011;9944;48.240;16.478;2024-01-16T21:52:41;8.20;;;5.17;;
19593;SDS011;9944;48.240;16.478;2024-01-16T21:56:45;13.07;;;6.87;;
19593;SDS011;9944;48.240;16.478;2024-01-16T22:00:49;11.17;;;6.33;;
19593;SDS011;9944;48.240;16.478;2024-01-16T22:04:54;11.83;;;6.00;;
19593;SDS011;9944;48.240;16.478;2024-01-16T22:08:58;10.37;;;5.67;;
19593;SDS011;9944;48.240;16.478;2024-01-16T22:13:02;12.17;;;5.43;;
19593;SDS011;9944;48.240;16.478;2024-01-16T22:17:06;8.47;;;5.00;;
19593;SDS011;9944;48.240;16.478;2024-01-16T22:21:10;8.73;;;4.50;;
19593;SDS011;9944;48.240;16.478;2024-01-16T22:25:13;11.80;;;5.93;;
19593;SDS011;9944;48.240;16.478;2024-01-16T22:29:18;8.13;;;4.83;;
19593;SDS011;9944;48.240;16.478;2024-01-16T22:33:22;9.50;;;4.97;;
19593;SDS011;9944;48.240;16.478;2024-01-16T22:37:25;9.70;;;5.27;;
19593;SDS011;9944;48.240;16.478;2024-01-16T22:41:31;9.03;;;4.77;;
19593;SDS011;9944;48.240;16.478;2024-01-16T22:45:37;7.87;;;5.13;;
19593;SDS011;9944;48.240;16.478;2024-01-16T22:49:41;8.50;;;5.43;;
19593;SDS011;9944;48.240;16.478;2024-01-16T22:53:44;10.80;;;6.07;;
19593;SDS011;9944;48.240;16.478;2024-01-16T22:57:48;9.73;;;5.80;;
19593;SDS011;9944;48.240;16.478;2024-01-16T23:01:52;13.37;;;6.73;;
19593;SDS011;9944;48.240;16.478;2024-01-16T23:05:56;10.23;;;5.80;;
19593;SDS011;9944;48.240;16.478;2024-01-16T23:09:59;10.07;;;5.87;;
19593;SDS011;9944;48.240;16.478;2024-01-16T23:14:04;11.37;;;6.50;;
19593;SDS011;9944;48.240;16.478;2024-01-16T23:18:08;9.57;;;6.17;;
19593;SDS011;9944;48.240;16.478;2024-01-16T23:22:12;10.57;;;6.37;;
19593;SDS011;9944;48.240;16.478;2024-01-16T23:26:15;9.17;;;6.50;;
19593;SDS011;9944;48.240;16.478;2024-01-16T23:30:19;11.70;;;6.50;;
19593;SDS011;9944;48.240;16.478;2024-01-16T23:34:24;10.17;;;5.93;;
19593;SDS011;9944;48.240;16.478;2024-01-16T23:38:28;11.30;;;6.40;;
19593;SDS011;9944;48.240;16.478;2024-01-16T23:42:31;9.83;;;6.10;;
19593;SDS011;9944;48.240;16.478;2024-01-16T23:46:35;11.50;;;6.93;;
19593;SDS011;9944;48.240;16.478;2024-01-16T23:50:41;11.33;;;6.80;;
19593;SDS011;9944;48.240;16.478;2024-01-16T23:54:45;11.60;;;6.50;;
19593;SDS011;9944;48.240;16.478;2024-01-16T23:58:48;14.17;;;7.30;;
